WetterOnline ( https://www.wetteronline.de )

Wetter aktuell Graun im Vinschgau

Aktuelles Wetter: Reschenpass (1461m)

6-stündlich | Neueste Meldungen
Ortszeit Temperatur Wetter
Fr, 18.06. 2:00 16.4° C wolkenlos
Do, 17.06. 20:00 20.8° C wolkig
Do, 17.06. 14:00 22.2° C leicht bewölkt
Do, 17.06. 8:00 15.0° C wolkig
Do, 17.06. 2:00 16.2° C leicht bewölkt
Mi, 16.06. 20:00 22.0° C leicht bewölkt
Mi, 16.06. 14:00 22.2° C wolkig
Mi, 16.06. 8:00 13.8° C leicht bewölkt
Ortszeit Temperatur Wetter
Fr, 18.06. 7:00 15.6° C wolkig
Fr, 18.06. 6:55 16° C leicht bewölkt
Fr, 18.06. 6:00 15.6° C wolkig
Fr, 18.06. 5:55 16° C leicht bewölkt
Fr, 18.06. 5:00 15.4° C wolkig
Fr, 18.06. 4:55 15° C bewölkt
Fr, 18.06. 3:00 16.0° C wolkenlos
Ortszeit Relative Feuchte Sichtweite
Fr, 18.06. 2:00 100% 12 km
Do, 17.06. 20:00 63% 16 km
Do, 17.06. 14:00 56% 20 km
Do, 17.06. 8:00 100% 8 km
Do, 17.06. 2:00 95% 10 km
Mi, 16.06. 20:00 70% 20 km
Mi, 16.06. 14:00 50% 20 km
Mi, 16.06. 8:00 80% 20 km
Ortszeit Relative Feuchte Sichtweite
Fr, 18.06. 7:00 94% 12 km
Fr, 18.06. 6:55 94% >10 km
Fr, 18.06. 6:00 96% 12 km
Fr, 18.06. 5:55 94% >10 km
Fr, 18.06. 5:00 96% 12 km
Fr, 18.06. 4:55 100% >10 km
Fr, 18.06. 3:00 94% 12 km
Ortszeit Niederschlagsmenge Niederschlagsart
Fr, 18.06. 2:00 0.0 l/m2 in 6 Std. -
Do, 17.06. 20:00 0.0 l/m2 in 12 Std. -
Do, 17.06. 14:00 0.0 l/m2 in 6 Std. -
Do, 17.06. 8:00 0.0 l/m2 in 12 Std. -
Do, 17.06. 2:00 0.0 l/m2 in 6 Std. -
Mi, 16.06. 20:00 0.0 l/m2 in 12 Std. -
Mi, 16.06. 14:00 0.0 l/m2 in 6 Std. -
Mi, 16.06. 8:00 0.0 l/m2 in 12 Std. -
Ortszeit Niederschlagsmenge Niederschlagsart
Fr, 18.06. 7:00 keine Meldung -
Fr, 18.06. 6:55 keine Meldung -
Fr, 18.06. 6:00 keine Meldung -
Fr, 18.06. 5:55 keine Meldung -
Fr, 18.06. 5:00 keine Meldung -
Fr, 18.06. 4:55 keine Meldung -
Fr, 18.06. 3:00 keine Meldung -
Ortszeit Stärke Spitze Richtung
km/h Bft. km/h Grad Sektor
Fr, 18.06. 2:00 6 1 - 210° SW
Do, 17.06. 20:00 9 2 - 160° S
Do, 17.06. 14:00 17 3 - 190° S
Do, 17.06. 8:00 7 2 - 360° N
Do, 17.06. 2:00 7 2 - 170° S
Mi, 16.06. 20:00 13 3 - 160° S
Mi, 16.06. 14:00 9 2 - 190° S
Mi, 16.06. 8:00 7 2 - 20° N
Ortszeit Stärke Spitze Richtung
km/h Bft. km/h Grad Sektor
Fr, 18.06. 7:00 0 0 - - -
Fr, 18.06. 6:55 0 0 - - -
Fr, 18.06. 6:00 6 1 - 10° N
Fr, 18.06. 5:55 6 1 - 10° N
Fr, 18.06. 5:00 0 0 - - -
Fr, 18.06. 4:55 0 0 - - -
Fr, 18.06. 3:00 6 1 - 240° SW
Ortszeit Untergrenze Bedeckung Gattung
total tief tief mittel hoch
Fr, 18.06. 2:00 - 0/8 0/8 - - -
Do, 17.06. 20:00 660 m 6/8 6/8 Cu - -
Do, 17.06. 14:00 660 m 3/8 3/8 Cu - -
Do, 17.06. 8:00 450 m 6/8 6/8 St - -
Do, 17.06. 2:00 1050 m 3/8 3/8 Cu - -
Mi, 16.06. 20:00 1050 m 4/8 4/8 Cu - -
Mi, 16.06. 14:00 1050 m 6/8 3/8 Cu - Ci
Mi, 16.06. 8:00 6000 m 5/8 5/8 - - Ci
Ortszeit Bedeckungsgrad in Achtel und Wolkenuntergrenze
Fr, 18.06. 7:00 3(660m) 4(750m)
Fr, 18.06. 6:55 3-4(660m) 3-4(750m)
Fr, 18.06. 6:00 3(660m) 4(750m)
Fr, 18.06. 5:55 3-4(660m) 3-4(750m)
Fr, 18.06. 5:00 6(750m)
Fr, 18.06. 4:55 5-7(750m)
Fr, 18.06. 3:00 keine Wolken
Ortszeit Stationsdruck (hPa) Tendenz (hPa in 3 Std.)
Fr, 18.06. 2:00 858 + 0,7
Do, 17.06. 20:00 856 0,0
Do, 17.06. 14:00 857 - 1,0
Do, 17.06. 8:00 858 - 0,3
Do, 17.06. 2:00 858 + 1,1
Mi, 16.06. 20:00 855 - 0,1
Mi, 16.06. 14:00 856 - 1,0
Mi, 16.06. 8:00 858 - 0,1
Ortszeit Stationsdruck (hPa) Tendenz (hPa in 3 Std.)
Fr, 18.06. 7:00 858 - 0,2
Fr, 18.06. 6:55 - keine Meldung
Fr, 18.06. 6:00 858 - 0,5
Fr, 18.06. 5:55 - keine Meldung
Fr, 18.06. 5:00 858 - 0,4
Fr, 18.06. 4:55 - keine Meldung
Fr, 18.06. 3:00 858 + 0,4
Ortszeit Schneehöhe (cm)
Fr, 18.06. 2:00 -
Do, 17.06. 20:00 -
Do, 17.06. 14:00 -
Do, 17.06. 8:00 0
Do, 17.06. 2:00 -
Mi, 16.06. 20:00 -
Mi, 16.06. 14:00 -
Mi, 16.06. 8:00 0
Ortszeit Schneehöhe (cm)
Fr, 18.06. 7:00 -
Fr, 18.06. 6:55 -
Fr, 18.06. 6:00 -
Fr, 18.06. 5:55 -
Fr, 18.06. 5:00 -
Fr, 18.06. 4:55 -
Fr, 18.06. 3:00 -
Link zu dieser Seite / Seite empfehlen

Das Wetter in ...